Have a Safe July 4th! 

Flight Track Log - Related Links

Times and Time Zones

All times are in EDT time to prevent confusion due to time zone crossing. See the N839CA flight status page for this flight to view local times or setup timezone preferences in your user account.

Time Position Orientation Groundspeed Altitude Reporting Facility
EDT Latitude Longitude Course Direction KTS MPH feet Rate Location/Type
Thu 06:50:36 PM 39.1500 -76.6333 46° Northeast 151 174 1,700  Level Potomac TRACON
Thu 06:51:36 PM 39.1500 -76.5667 90° East 167 192 2,900 1,400 Climbing Potomac TRACON
Thu 06:52:36 PM 39.1500 -76.5167 90° East 160 184 4,500 1,300 Climbing Potomac TRACON
Thu 06:53:36 PM 39.1500 -76.4500 90° East 166 191 5,500 1,050 Climbing Potomac TRACON
Thu 06:54:36 PM 39.1667 -76.4000 67° East 182 209 6,600 1,150 Climbing Potomac TRACON
Thu 06:55:00 PM 39.1815 -76.1843 21° North  Level FlightAware Approximate
Thu 06:55:36 PM 39.2000 -76.3500 49° Northeast 180 207 7,800  Level Potomac TRACON
Thu 06:56:00 PM 39.2302 -76.1264 46° Northeast  Level FlightAware Approximate
Thu 06:56:36 PM 39.2333 -76.3000 49° Northeast 184 212 8,900  Level Potomac TRACON
Thu 06:57:36 PM 39.2667 -76.2500 49° Northeast 186 214 10,000 1,100 Climbing Potomac TRACON
Thu 06:58:36 PM 39.3000 -76.2000 49° Northeast 185 213 11,100 359 Climbing Potomac TRACON
Thu 07:00:23 PM 39.3667 -76.1000 49° Northeast 241 277 11,000 -35 Descending Philadelphia TRACON
Thu 07:01:29 PM 39.4167 -76.0167 52° Northeast 245 282 11,000  Level Philadelphia TRACON
Thu 07:02:23 PM 39.4500 -75.9667 49° Northeast 247 284 11,000  Level Philadelphia TRACON
Thu 07:03:29 PM 39.5000 -75.8833 52° Northeast 247 284 11,000  Level Philadelphia TRACON
Thu 07:04:23 PM 39.5333 -75.8333 49° Northeast 248 285 11,000  Level Philadelphia TRACON
Thu 07:05:23 PM 39.5833 -75.7500 52° Northeast 247 284 11,000  Level Philadelphia TRACON
Thu 07:06:29 PM 39.6333 -75.6833 46° Northeast 249 287 11,000  Level Philadelphia TRACON
Thu 07:07:29 PM 39.6833 -75.6167 46° Northeast 249 287 11,000  Level Philadelphia TRACON
Thu 07:08:29 PM 39.7000 -75.5333 75° East 249 287 11,000  Level Philadelphia TRACON
Thu 07:09:23 PM 39.7167 -75.4500 75° East 249 287 11,000  Level Philadelphia TRACON
Thu 07:10:23 PM 39.7500 -75.3667 62° Northeast 250 288 11,000 -300 Level Philadelphia TRACON
Thu 07:11:23 PM 39.7667 -75.2833 75° East 253 291 10,400 -500 Descending Philadelphia TRACON
Thu 07:12:23 PM 39.8000 -75.1833 67° East 260 299 10,000 -200 Descending Philadelphia TRACON
Thu 07:13:23 PM 39.8167 -75.1000 75° East 248 285 10,000 -100 Level Philadelphia TRACON
Thu 07:14:23 PM 39.8500 -75.0167 62° Northeast 244 281 9,800 -476 Descending Philadelphia TRACON
Thu 07:15:29 PM 39.8833 -74.9500 57° Northeast 258 297 9,000 -800 Descending Philadelphia TRACON
Thu 07:16:23 PM 39.9333 -74.8833 46° Northeast 252 290 8,200 -842 Descending Philadelphia TRACON
Thu 07:17:23 PM 39.9833 -74.8167 46° Northeast 246 283 7,400 -632 Descending Philadelphia TRACON
Thu 07:18:17 PM 40.0167 -74.7667 49° Northeast 244 281 7,000 -198 Descending Philadelphia TRACON
Thu 07:19:24 PM 40.0667 -74.7000 46° Northeast 235 270 7,000  Level New York TRACON
Thu 07:20:24 PM 40.1167 -74.6333 46° Northeast 236 272 7,000  Level New York TRACON
Thu 07:21:30 PM 40.1833 -74.6333 360° North 251 289 7,000  Level New York TRACON
Thu 07:22:25 PM 40.2500 -74.6500 349° North 248 285 7,000 -626 Level New York TRACON
Thu 07:23:25 PM 40.3167 -74.6500 360° North 260 299 5,800 -1,100 Descending New York TRACON
Thu 07:24:25 PM 40.4000 -74.6667 351° North 260 299 4,800 -900 Descending New York TRACON
Thu 07:25:25 PM 40.4667 -74.6500 11° North 248 285 4,000 -850 Descending New York TRACON
Thu 07:26:25 PM 40.5333 -74.6500 360° North 250 288 3,100 -500 Descending New York TRACON
Thu 07:27:25 PM 40.5833 -74.5833 45° Northeast 247 284 3,000 -50 Descending New York TRACON
Thu 07:28:25 PM 40.6333 -74.5333 37° Northeast 248 285 3,000 -368 Level New York TRACON
Thu 07:29:19 PM 40.6500 -74.4500 75° East 247 284 2,300 -500 Descending New York TRACON
Thu 07:30:25 PM 40.6833 -74.3667 62° Northeast 222 255 2,000 -189 Descending New York TRACON
Thu 07:31:26 PM 40.7000 -74.3000 72° East 188 216 1,900 -496 Descending New York TRACON
Thu 07:32:26 PM 40.7000 -74.2500 90° East 147 169 1,000 -842 Descending New York TRACON
Thu 07:33:20 PM 40.7000 -74.2000 90° East 133 153 300 -778 Descending New York TRACON

Login

Don't have an account? Register now (free) for customized features, flight alerts, and more!